sensor_id;sensor_type;location;lat;lon;timestamp;temperature;humidity
30174;DHT22;16985;50.814;8.530;2023-08-01T00:00:02;16.70;99.90
30174;DHT22;16985;50.814;8.530;2023-08-01T00:02:37;16.70;99.90
30174;DHT22;16985;50.814;8.530;2023-08-01T00:05:04;16.70;99.90
30174;DHT22;16985;50.814;8.530;2023-08-01T00:07:30;16.60;99.90
30174;DHT22;16985;50.814;8.530;2023-08-01T00:09:56;16.60;99.90
30174;DHT22;16985;50.814;8.530;2023-08-01T00:12:25;16.60;99.90
30174;DHT22;16985;50.814;8.530;2023-08-01T00:14:51;16.60;99.90
30174;DHT22;16985;50.814;8.530;2023-08-01T00:17:17;16.60;99.90
30174;DHT22;16985;50.814;8.530;2023-08-01T00:19:43;16.60;99.90
30174;DHT22;16985;50.814;8.530;2023-08-01T00:22:08;16.60;99.90
30174;DHT22;16985;50.814;8.530;2023-08-01T00:24:36;16.60;99.90
30174;DHT22;16985;50.814;8.530;2023-08-01T00:27:01;16.60;99.90
30174;DHT22;16985;50.814;8.530;2023-08-01T00:29:27;16.70;99.90
30174;DHT22;16985;50.814;8.530;2023-08-01T00:31:53;16.70;99.90
30174;DHT22;16985;50.814;8.530;2023-08-01T00:34:19;16.70;99.90
30174;DHT22;16985;50.814;8.530;2023-08-01T00:36:45;16.70;99.90
30174;DHT22;16985;50.814;8.530;2023-08-01T00:39:10;16.70;99.90
30174;DHT22;16985;50.814;8.530;2023-08-01T00:41:36;16.60;99.90
30174;DHT22;16985;50.814;8.530;2023-08-01T00:44:02;16.70;99.90
30174;DHT22;16985;50.814;8.530;2023-08-01T00:46:29;16.70;99.90
30174;DHT22;16985;50.814;8.530;2023-08-01T00:48:55;16.70;99.90
30174;DHT22;16985;50.814;8.530;2023-08-01T00:51:24;16.70;99.90
30174;DHT22;16985;50.814;8.530;2023-08-01T00:53:51;16.70;99.90
30174;DHT22;16985;50.814;8.530;2023-08-01T00:56:17;16.70;99.90
30174;DHT22;16985;50.814;8.530;2023-08-01T00:58:44;16.70;99.90
30174;DHT22;16985;50.814;8.530;2023-08-01T01:01:10;16.80;99.90
30174;DHT22;16985;50.814;8.530;2023-08-01T01:03:37;16.70;99.90
30174;DHT22;16985;50.814;8.530;2023-08-01T01:06:13;16.70;99.90
30174;DHT22;16985;50.814;8.530;2023-08-01T01:08:42;16.70;99.90
30174;DHT22;16985;50.814;8.530;2023-08-01T01:11:08;16.70;99.90
30174;DHT22;16985;50.814;8.530;2023-08-01T01:13:34;16.70;99.90
30174;DHT22;16985;50.814;8.530;2023-08-01T01:16:00;16.70;99.90
30174;DHT22;16985;50.814;8.530;2023-08-01T01:18:26;16.70;99.90
30174;DHT22;16985;50.814;8.530;2023-08-01T01:20:52;16.70;99.90
30174;DHT22;16985;50.814;8.530;2023-08-01T01:23:19;16.70;99.90
30174;DHT22;16985;50.814;8.530;2023-08-01T01:25:49;16.70;99.90
30174;DHT22;16985;50.814;8.530;2023-08-01T01:28:17;16.70;99.90
30174;DHT22;16985;50.814;8.530;2023-08-01T01:30:45;16.70;99.90
30174;DHT22;16985;50.814;8.530;2023-08-01T01:33:11;16.70;99.90
30174;DHT22;16985;50.814;8.530;2023-08-01T01:35:38;16.60;99.90
30174;DHT22;16985;50.814;8.530;2023-08-01T01:38:04;16.70;99.90
30174;DHT22;16985;50.814;8.530;2023-08-01T01:40:31;16.60;99.90
30174;DHT22;16985;50.814;8.530;2023-08-01T01:42:57;16.60;99.90
30174;DHT22;16985;50.814;8.530;2023-08-01T01:45:24;16.60;99.90
30174;DHT22;16985;50.814;8.530;2023-08-01T01:47:50;16.50;99.90
30174;DHT22;16985;50.814;8.530;2023-08-01T01:50:15;16.60;99.90
30174;DHT22;16985;50.814;8.530;2023-08-01T01:52:41;16.70;99.90
30174;DHT22;16985;50.814;8.530;2023-08-01T01:55:07;16.70;99.90
30174;DHT22;16985;50.814;8.530;2023-08-01T01:57:34;16.60;99.90
30174;DHT22;16985;50.814;8.530;2023-08-01T02:00:03;16.70;99.90
30174;DHT22;16985;50.814;8.530;2023-08-01T02:02:38;16.70;99.90
30174;DHT22;16985;50.814;8.530;2023-08-01T02:05:04;16.70;99.90
30174;DHT22;16985;50.814;8.530;2023-08-01T02:07:30;16.60;99.90
30174;DHT22;16985;50.814;8.530;2023-08-01T02:09:56;16.60;99.90
30174;DHT22;16985;50.814;8.530;2023-08-01T02:12:22;16.70;99.90
30174;DHT22;16985;50.814;8.530;2023-08-01T02:14:48;16.50;99.90
30174;DHT22;16985;50.814;8.530;2023-08-01T02:17:13;16.60;99.90
30174;DHT22;16985;50.814;8.530;2023-08-01T02:19:40;16.60;99.90
30174;DHT22;16985;50.814;8.530;2023-08-01T02:22:06;16.70;99.90
30174;DHT22;16985;50.814;8.530;2023-08-01T02:24:32;16.60;99.90
30174;DHT22;16985;50.814;8.530;2023-08-01T02:26:58;16.60;99.90
30174;DHT22;16985;50.814;8.530;2023-08-01T02:29:24;16.60;99.90
30174;DHT22;16985;50.814;8.530;2023-08-01T02:31:50;16.70;99.90
30174;DHT22;16985;50.814;8.530;2023-08-01T02:34:15;16.70;99.90
30174;DHT22;16985;50.814;8.530;2023-08-01T02:36:41;16.70;99.90
30174;DHT22;16985;50.814;8.530;2023-08-01T02:39:07;16.70;99.90
30174;DHT22;16985;50.814;8.530;2023-08-01T02:41:33;16.70;99.90
30174;DHT22;16985;50.814;8.530;2023-08-01T02:44:00;16.70;99.90
30174;DHT22;16985;50.814;8.530;2023-08-01T02:46:27;16.70;99.90
30174;DHT22;16985;50.814;8.530;2023-08-01T02:48:55;16.70;99.90
30174;DHT22;16985;50.814;8.530;2023-08-01T02:51:21;16.70;99.90
30174;DHT22;16985;50.814;8.530;2023-08-01T02:53:46;16.70;99.90
30174;DHT22;16985;50.814;8.530;2023-08-01T02:56:12;16.70;99.90
30174;DHT22;16985;50.814;8.530;2023-08-01T02:58:38;16.70;99.90
30174;DHT22;16985;50.814;8.530;2023-08-01T03:01:07;16.70;99.90
30174;DHT22;16985;50.814;8.530;2023-08-01T03:03:35;16.70;99.90
30174;DHT22;16985;50.814;8.530;2023-08-01T03:06:02;16.70;99.90
30174;DHT22;16985;50.814;8.530;2023-08-01T03:08:28;16.70;99.90
30174;DHT22;16985;50.814;8.530;2023-08-01T03:10:55;16.70;99.90
30174;DHT22;16985;50.814;8.530;2023-08-01T03:13:21;16.80;99.90
30174;DHT22;16985;50.814;8.530;2023-08-01T03:15:47;16.80;99.90
30174;DHT22;16985;50.814;8.530;2023-08-01T03:18:13;16.80;99.90
30174;DHT22;16985;50.814;8.530;2023-08-01T03:20:39;16.70;99.90
30174;DHT22;16985;50.814;8.530;2023-08-01T03:23:05;16.70;99.90
30174;DHT22;16985;50.814;8.530;2023-08-01T03:25:31;16.70;99.90
30174;DHT22;16985;50.814;8.530;2023-08-01T03:27:57;16.70;99.90
30174;DHT22;16985;50.814;8.530;2023-08-01T03:30:23;16.70;99.90
30174;DHT22;16985;50.814;8.530;2023-08-01T03:32:49;16.70;99.90
30174;DHT22;16985;50.814;8.530;2023-08-01T03:35:15;16.80;99.90
30174;DHT22;16985;50.814;8.530;2023-08-01T03:37:41;16.80;99.90
30174;DHT22;16985;50.814;8.530;2023-08-01T03:40:07;16.80;99.90
30174;DHT22;16985;50.814;8.530;2023-08-01T03:42:36;16.70;99.90
30174;DHT22;16985;50.814;8.530;2023-08-01T03:45:03;16.70;99.90
30174;DHT22;16985;50.814;8.530;2023-08-01T03:47:29;16.70;99.90
30174;DHT22;16985;50.814;8.530;2023-08-01T03:49:55;16.70;99.90
30174;DHT22;16985;50.814;8.530;2023-08-01T03:52:21;16.70;99.90
30174;DHT22;16985;50.814;8.530;2023-08-01T03:54:48;16.70;99.90
30174;DHT22;16985;50.814;8.530;2023-08-01T03:57:14;16.70;99.90
30174;DHT22;16985;50.814;8.530;2023-08-01T03:59:40;16.70;99.90
30174;DHT22;16985;50.814;8.530;2023-08-01T04:02:06;16.80;99.90
30174;DHT22;16985;50.814;8.530;2023-08-01T04:04:32;16.70;99.90
30174;DHT22;16985;50.814;8.530;2023-08-01T04:06:57;16.70;99.90
30174;DHT22;16985;50.814;8.530;2023-08-01T04:09:23;16.70;99.90
30174;DHT22;16985;50.814;8.530;2023-08-01T04:11:49;16.70;99.90
30174;DHT22;16985;50.814;8.530;2023-08-01T04:14:15;16.70;99.90
30174;DHT22;16985;50.814;8.530;2023-08-01T04:16:40;16.70;99.90
30174;DHT22;16985;50.814;8.530;2023-08-01T04:19:06;16.80;99.90
30174;DHT22;16985;50.814;8.530;2023-08-01T04:21:32;16.80;99.90
30174;DHT22;16985;50.814;8.530;2023-08-01T04:23:58;16.70;99.90
30174;DHT22;16985;50.814;8.530;2023-08-01T04:26:24;16.80;99.90
30174;DHT22;16985;50.814;8.530;2023-08-01T04:28:49;16.80;99.90
30174;DHT22;16985;50.814;8.530;2023-08-01T04:31:15;16.80;99.90
30174;DHT22;16985;50.814;8.530;2023-08-01T04:33:41;16.80;99.90
30174;DHT22;16985;50.814;8.530;2023-08-01T04:36:07;16.80;99.90
30174;DHT22;16985;50.814;8.530;2023-08-01T04:38:32;16.80;99.90
30174;DHT22;16985;50.814;8.530;2023-08-01T04:40:58;16.80;99.90
30174;DHT22;16985;50.814;8.530;2023-08-01T04:43:24;16.80;99.90
30174;DHT22;16985;50.814;8.530;2023-08-01T04:45:50;16.80;99.90
30174;DHT22;16985;50.814;8.530;2023-08-01T04:48:15;16.80;99.90
30174;DHT22;16985;50.814;8.530;2023-08-01T04:50:41;16.80;99.90
30174;DHT22;16985;50.814;8.530;2023-08-01T04:53:07;16.80;99.90
30174;DHT22;16985;50.814;8.530;2023-08-01T04:55:33;16.80;99.90
30174;DHT22;16985;50.814;8.530;2023-08-01T04:57:59;16.80;99.90
30174;DHT22;16985;50.814;8.530;2023-08-01T05:00:24;16.80;99.90
30174;DHT22;16985;50.814;8.530;2023-08-01T05:02:50;16.80;99.90
30174;DHT22;16985;50.814;8.530;2023-08-01T05:05:16;16.80;99.90
30174;DHT22;16985;50.814;8.530;2023-08-01T05:07:42;16.80;99.90
30174;DHT22;16985;50.814;8.530;2023-08-01T05:10:08;16.80;99.90
30174;DHT22;16985;50.814;8.530;2023-08-01T05:12:34;16.80;99.90
30174;DHT22;16985;50.814;8.530;2023-08-01T05:15:00;16.70;99.90
30174;DHT22;16985;50.814;8.530;2023-08-01T05:17:26;16.70;99.90
30174;DHT22;16985;50.814;8.530;2023-08-01T05:19:52;16.70;99.90
30174;DHT22;16985;50.814;8.530;2023-08-01T05:22:18;16.70;99.90
30174;DHT22;16985;50.814;8.530;2023-08-01T05:24:43;16.70;99.90
30174;DHT22;16985;50.814;8.530;2023-08-01T05:27:09;16.70;99.90
30174;DHT22;16985;50.814;8.530;2023-08-01T05:29:35;16.70;99.90
30174;DHT22;16985;50.814;8.530;2023-08-01T05:32:02;16.60;99.90
30174;DHT22;16985;50.814;8.530;2023-08-01T05:34:28;16.60;99.90
30174;DHT22;16985;50.814;8.530;2023-08-01T05:36:53;16.60;99.90
30174;DHT22;16985;50.814;8.530;2023-08-01T05:39:19;16.60;99.90
30174;DHT22;16985;50.814;8.530;2023-08-01T05:41:45;16.50;99.90
30174;DHT22;16985;50.814;8.530;2023-08-01T05:44:11;16.50;99.90
30174;DHT22;16985;50.814;8.530;2023-08-01T05:46:36;16.50;99.90
30174;DHT22;16985;50.814;8.530;2023-08-01T05:49:02;16.50;99.90
30174;DHT22;16985;50.814;8.530;2023-08-01T05:51:28;16.50;99.90
30174;DHT22;16985;50.814;8.530;2023-08-01T05:53:54;16.50;99.90
30174;DHT22;16985;50.814;8.530;2023-08-01T05:56:20;16.50;99.90
30174;DHT22;16985;50.814;8.530;2023-08-01T05:58:46;16.50;99.90
30174;DHT22;16985;50.814;8.530;2023-08-01T06:01:11;16.50;99.90
30174;DHT22;16985;50.814;8.530;2023-08-01T06:03:37;16.50;99.90
30174;DHT22;16985;50.814;8.530;2023-08-01T06:06:03;16.50;99.90
30174;DHT22;16985;50.814;8.530;2023-08-01T06:08:30;16.50;99.90
30174;DHT22;16985;50.814;8.530;2023-08-01T06:10:56;16.40;99.90
30174;DHT22;16985;50.814;8.530;2023-08-01T06:13:22;16.40;99.90
30174;DHT22;16985;50.814;8.530;2023-08-01T06:15:47;16.40;99.90
30174;DHT22;16985;50.814;8.530;2023-08-01T06:18:13;16.50;99.90
30174;DHT22;16985;50.814;8.530;2023-08-01T06:20:39;16.40;99.90
30174;DHT22;16985;50.814;8.530;2023-08-01T06:23:05;16.40;99.90
30174;DHT22;16985;50.814;8.530;2023-08-01T06:25:31;16.40;99.90
30174;DHT22;16985;50.814;8.530;2023-08-01T06:27:57;16.40;99.90
30174;DHT22;16985;50.814;8.530;2023-08-01T06:30:22;16.40;99.90
30174;DHT22;16985;50.814;8.530;2023-08-01T06:32:48;16.40;99.90
30174;DHT22;16985;50.814;8.530;2023-08-01T06:35:14;16.40;99.90
30174;DHT22;16985;50.814;8.530;2023-08-01T06:37:40;16.40;99.90
30174;DHT22;16985;50.814;8.530;2023-08-01T06:40:06;16.40;99.90
30174;DHT22;16985;50.814;8.530;2023-08-01T06:42:33;16.40;99.90
30174;DHT22;16985;50.814;8.530;2023-08-01T06:44:59;16.40;99.90
30174;DHT22;16985;50.814;8.530;2023-08-01T06:47:25;16.40;99.90
30174;DHT22;16985;50.814;8.530;2023-08-01T06:49:51;16.40;99.90
30174;DHT22;16985;50.814;8.530;2023-08-01T06:52:16;16.40;99.90
30174;DHT22;16985;50.814;8.530;2023-08-01T06:54:42;16.40;99.90
30174;DHT22;16985;50.814;8.530;2023-08-01T06:57:08;16.40;99.90
30174;DHT22;16985;50.814;8.530;2023-08-01T06:59:34;16.40;99.90
30174;DHT22;16985;50.814;8.530;2023-08-01T07:02:00;16.40;99.90
30174;DHT22;16985;50.814;8.530;2023-08-01T07:04:26;16.50;99.90
30174;DHT22;16985;50.814;8.530;2023-08-01T07:06:52;16.40;99.90
30174;DHT22;16985;50.814;8.530;2023-08-01T07:09:18;16.50;99.90
30174;DHT22;16985;50.814;8.530;2023-08-01T07:11:44;16.40;99.90
30174;DHT22;16985;50.814;8.530;2023-08-01T07:14:10;16.40;99.90
30174;DHT22;16985;50.814;8.530;2023-08-01T07:16:35;16.40;99.90
30174;DHT22;16985;50.814;8.530;2023-08-01T07:19:01;16.40;99.90
30174;DHT22;16985;50.814;8.530;2023-08-01T07:21:27;16.50;99.90
30174;DHT22;16985;50.814;8.530;2023-08-01T07:23:54;16.40;99.90
30174;DHT22;16985;50.814;8.530;2023-08-01T07:26:20;16.40;99.90
30174;DHT22;16985;50.814;8.530;2023-08-01T07:28:46;16.40;99.90
30174;DHT22;16985;50.814;8.530;2023-08-01T07:31:12;16.40;99.90
30174;DHT22;16985;50.814;8.530;2023-08-01T07:33:38;16.40;99.90
30174;DHT22;16985;50.814;8.530;2023-08-01T07:36:03;16.40;99.90
30174;DHT22;16985;50.814;8.530;2023-08-01T07:38:29;16.40;99.90
30174;DHT22;16985;50.814;8.530;2023-08-01T07:41:05;16.40;99.90
30174;DHT22;16985;50.814;8.530;2023-08-01T07:43:32;16.50;99.90
30174;DHT22;16985;50.814;8.530;2023-08-01T07:45:59;16.40;99.90
30174;DHT22;16985;50.814;8.530;2023-08-01T07:48:25;16.40;99.90
30174;DHT22;16985;50.814;8.530;2023-08-01T07:50:51;16.50;99.90
30174;DHT22;16985;50.814;8.530;2023-08-01T07:53:17;16.50;99.90
30174;DHT22;16985;50.814;8.530;2023-08-01T07:55:43;16.50;99.90
30174;DHT22;16985;50.814;8.530;2023-08-01T07:58:08;16.60;99.90
30174;DHT22;16985;50.814;8.530;2023-08-01T08:00:35;16.70;99.90
30174;DHT22;16985;50.814;8.530;2023-08-01T08:03:01;16.70;99.90
30174;DHT22;16985;50.814;8.530;2023-08-01T08:05:26;16.80;99.90
30174;DHT22;16985;50.814;8.530;2023-08-01T08:07:52;16.80;99.90
30174;DHT22;16985;50.814;8.530;2023-08-01T08:10:18;16.80;99.90
30174;DHT22;16985;50.814;8.530;2023-08-01T08:12:44;16.80;99.90
30174;DHT22;16985;50.814;8.530;2023-08-01T08:15:10;16.90;99.90
30174;DHT22;16985;50.814;8.530;2023-08-01T08:17:36;17.00;99.90
30174;DHT22;16985;50.814;8.530;2023-08-01T08:20:03;17.10;99.90
30174;DHT22;16985;50.814;8.530;2023-08-01T08:22:29;17.10;99.90
30174;DHT22;16985;50.814;8.530;2023-08-01T08:24:55;17.20;99.90
30174;DHT22;16985;50.814;8.530;2023-08-01T08:27:20;17.20;99.90
30174;DHT22;16985;50.814;8.530;2023-08-01T08:29:46;17.30;99.90
30174;DHT22;16985;50.814;8.530;2023-08-01T08:32:12;17.30;99.90
30174;DHT22;16985;50.814;8.530;2023-08-01T08:34:38;17.30;99.90
30174;DHT22;16985;50.814;8.530;2023-08-01T08:37:05;17.40;99.90
30174;DHT22;16985;50.814;8.530;2023-08-01T08:39:31;17.50;99.90
30174;DHT22;16985;50.814;8.530;2023-08-01T08:41:57;17.40;99.90
30174;DHT22;16985;50.814;8.530;2023-08-01T08:44:23;17.40;99.90
30174;DHT22;16985;50.814;8.530;2023-08-01T08:46:53;17.40;99.90
30174;DHT22;16985;50.814;8.530;2023-08-01T08:49:20;17.40;99.90
30174;DHT22;16985;50.814;8.530;2023-08-01T08:51:48;17.40;99.90
30174;DHT22;16985;50.814;8.530;2023-08-01T08:54:16;17.50;99.90
30174;DHT22;16985;50.814;8.530;2023-08-01T08:56:42;17.60;99.90
30174;DHT22;16985;50.814;8.530;2023-08-01T08:59:09;17.60;99.90
30174;DHT22;16985;50.814;8.530;2023-08-01T09:01:36;17.70;99.90
30174;DHT22;16985;50.814;8.530;2023-08-01T09:04:03;17.70;99.90
30174;DHT22;16985;50.814;8.530;2023-08-01T09:06:40;17.70;99.90
30174;DHT22;16985;50.814;8.530;2023-08-01T09:09:11;17.80;99.90
30174;DHT22;16985;50.814;8.530;2023-08-01T09:11:51;17.80;99.90
30174;DHT22;16985;50.814;8.530;2023-08-01T09:14:18;17.80;99.90
30174;DHT22;16985;50.814;8.530;2023-08-01T09:16:45;17.90;99.90
30174;DHT22;16985;50.814;8.530;2023-08-01T09:19:20;17.90;99.90
30174;DHT22;16985;50.814;8.530;2023-08-01T09:21:47;17.90;99.90
30174;DHT22;16985;50.814;8.530;2023-08-01T09:24:20;17.90;99.90
30174;DHT22;16985;50.814;8.530;2023-08-01T09:26:48;17.90;99.90
30174;DHT22;16985;50.814;8.530;2023-08-01T09:29:18;17.90;99.90
30174;DHT22;16985;50.814;8.530;2023-08-01T09:31:45;17.90;99.90
30174;DHT22;16985;50.814;8.530;2023-08-01T09:34:22;18.00;99.90
30174;DHT22;16985;50.814;8.530;2023-08-01T09:36:49;17.90;99.90
30174;DHT22;16985;50.814;8.530;2023-08-01T09:39:20;18.00;99.90
30174;DHT22;16985;50.814;8.530;2023-08-01T09:42:00;18.00;99.90
30174;DHT22;16985;50.814;8.530;2023-08-01T09:44:28;18.10;99.90
30174;DHT22;16985;50.814;8.530;2023-08-01T09:46:56;18.20;99.90
30174;DHT22;16985;50.814;8.530;2023-08-01T09:49:26;18.30;99.90
30174;DHT22;16985;50.814;8.530;2023-08-01T09:51:52;18.40;99.90
30174;DHT22;16985;50.814;8.530;2023-08-01T09:54:19;18.50;99.90
30174;DHT22;16985;50.814;8.530;2023-08-01T09:56:49;18.70;99.90
30174;DHT22;16985;50.814;8.530;2023-08-01T09:59:24;18.70;99.90
30174;DHT22;16985;50.814;8.530;2023-08-01T10:01:53;18.80;99.90
30174;DHT22;16985;50.814;8.530;2023-08-01T10:04:30;18.80;99.90
30174;DHT22;16985;50.814;8.530;2023-08-01T10:07:19;18.80;99.90
30174;DHT22;16985;50.814;8.530;2023-08-01T10:09:49;18.80;99.90
30174;DHT22;16985;50.814;8.530;2023-08-01T10:12:17;18.80;99.90
30174;DHT22;16985;50.814;8.530;2023-08-01T10:14:44;18.90;99.90
30174;DHT22;16985;50.814;8.530;2023-08-01T10:17:11;18.80;99.90
30174;DHT22;16985;50.814;8.530;2023-08-01T10:19:37;18.70;99.90
30174;DHT22;16985;50.814;8.530;2023-08-01T10:22:05;18.60;99.90
30174;DHT22;16985;50.814;8.530;2023-08-01T10:24:32;18.50;99.90
30174;DHT22;16985;50.814;8.530;2023-08-01T10:27:14;18.40;99.90
30174;DHT22;16985;50.814;8.530;2023-08-01T10:29:41;18.30;99.90
30174;DHT22;16985;50.814;8.530;2023-08-01T10:32:08;18.30;99.90
30174;DHT22;16985;50.814;8.530;2023-08-01T10:34:35;18.30;99.90
30174;DHT22;16985;50.814;8.530;2023-08-01T10:37:01;18.30;99.90
30174;DHT22;16985;50.814;8.530;2023-08-01T10:39:28;18.30;99.90
30174;DHT22;16985;50.814;8.530;2023-08-01T10:44:28;18.60;99.90
30174;DHT22;16985;50.814;8.530;2023-08-01T10:47:04;18.70;99.90
30174;DHT22;16985;50.814;8.530;2023-08-01T10:52:18;18.90;99.90
30174;DHT22;16985;50.814;8.530;2023-08-01T10:54:45;18.90;99.90
30174;DHT22;16985;50.814;8.530;2023-08-01T10:57:17;19.00;99.90
30174;DHT22;16985;50.814;8.530;2023-08-01T10:59:44;19.00;99.90
30174;DHT22;16985;50.814;8.530;2023-08-01T11:02:10;19.10;99.90
30174;DHT22;16985;50.814;8.530;2023-08-01T11:04:36;19.10;99.90
30174;DHT22;16985;50.814;8.530;2023-08-01T11:07:04;19.10;99.90
30174;DHT22;16985;50.814;8.530;2023-08-01T11:09:30;19.10;99.90
30174;DHT22;16985;50.814;8.530;2023-08-01T11:11:58;19.20;99.90
30174;DHT22;16985;50.814;8.530;2023-08-01T11:14:28;19.20;99.90
30174;DHT22;16985;50.814;8.530;2023-08-01T11:16:55;19.40;99.90
30174;DHT22;16985;50.814;8.530;2023-08-01T11:19:29;19.40;99.90
30174;DHT22;16985;50.814;8.530;2023-08-01T11:21:56;19.50;99.90
30174;DHT22;16985;50.814;8.530;2023-08-01T11:24:24;19.50;99.90
30174;DHT22;16985;50.814;8.530;2023-08-01T11:26:51;19.50;99.90
30174;DHT22;16985;50.814;8.530;2023-08-01T11:29:19;19.50;99.90
30174;DHT22;16985;50.814;8.530;2023-08-01T11:34:22;19.60;99.90
30174;DHT22;16985;50.814;8.530;2023-08-01T11:36:48;19.60;99.90
30174;DHT22;16985;50.814;8.530;2023-08-01T11:39:15;19.70;99.90
30174;DHT22;16985;50.814;8.530;2023-08-01T11:41:42;19.80;99.90
30174;DHT22;16985;50.814;8.530;2023-08-01T11:44:11;19.80;99.90
30174;DHT22;16985;50.814;8.530;2023-08-01T11:46:38;20.00;99.90
30174;DHT22;16985;50.814;8.530;2023-08-01T11:49:06;20.10;99.90
30174;DHT22;16985;50.814;8.530;2023-08-01T11:51:39;20.10;99.90
30174;DHT22;16985;50.814;8.530;2023-08-01T11:54:06;20.20;99.90
30174;DHT22;16985;50.814;8.530;2023-08-01T11:56:33;20.30;99.90
30174;DHT22;16985;50.814;8.530;2023-08-01T11:58:59;20.30;99.90
30174;DHT22;16985;50.814;8.530;2023-08-01T12:01:25;20.40;99.90
30174;DHT22;16985;50.814;8.530;2023-08-01T12:03:53;20.50;99.90
30174;DHT22;16985;50.814;8.530;2023-08-01T12:06:22;20.60;99.90
30174;DHT22;16985;50.814;8.530;2023-08-01T12:08:50;20.60;98.10
30174;DHT22;16985;50.814;8.530;2023-08-01T12:11:26;20.70;97.70
30174;DHT22;16985;50.814;8.530;2023-08-01T12:14:13;20.70;96.70
30174;DHT22;16985;50.814;8.530;2023-08-01T12:16:45;20.70;96.30
30174;DHT22;16985;50.814;8.530;2023-08-01T12:19:21;20.70;96.40
30174;DHT22;16985;50.814;8.530;2023-08-01T12:21:48;20.80;96.70
30174;DHT22;16985;50.814;8.530;2023-08-01T12:24:15;20.80;97.40
30174;DHT22;16985;50.814;8.530;2023-08-01T12:26:40;20.90;97.40
30174;DHT22;16985;50.814;8.530;2023-08-01T12:29:06;20.90;97.30
30174;DHT22;16985;50.814;8.530;2023-08-01T12:31:33;21.00;97.00
30174;DHT22;16985;50.814;8.530;2023-08-01T12:33:58;20.90;96.40
30174;DHT22;16985;50.814;8.530;2023-08-01T12:36:24;20.80;96.20
30174;DHT22;16985;50.814;8.530;2023-08-01T12:38:50;20.80;95.50
30174;DHT22;16985;50.814;8.530;2023-08-01T12:41:16;20.70;96.00
30174;DHT22;16985;50.814;8.530;2023-08-01T12:43:42;20.60;96.80
30174;DHT22;16985;50.814;8.530;2023-08-01T12:46:08;20.40;97.30
30174;DHT22;16985;50.814;8.530;2023-08-01T12:48:34;20.10;98.20
30174;DHT22;16985;50.814;8.530;2023-08-01T12:50:59;20.10;98.60
30174;DHT22;16985;50.814;8.530;2023-08-01T12:53:25;20.00;99.70
30174;DHT22;16985;50.814;8.530;2023-08-01T12:55:56;20.10;99.90
30174;DHT22;16985;50.814;8.530;2023-08-01T12:58:22;20.20;99.90
30174;DHT22;16985;50.814;8.530;2023-08-01T13:00:48;20.20;99.90
30174;DHT22;16985;50.814;8.530;2023-08-01T13:03:14;20.30;99.90
30174;DHT22;16985;50.814;8.530;2023-08-01T13:05:41;20.50;99.90
30174;DHT22;16985;50.814;8.530;2023-08-01T13:08:08;20.60;99.90
30174;DHT22;16985;50.814;8.530;2023-08-01T13:10:36;20.80;99.90
30174;DHT22;16985;50.814;8.530;2023-08-01T13:13:03;20.90;99.90
30174;DHT22;16985;50.814;8.530;2023-08-01T13:15:29;21.00;99.90
30174;DHT22;16985;50.814;8.530;2023-08-01T13:17:56;21.20;99.90
30174;DHT22;16985;50.814;8.530;2023-08-01T13:20:22;21.30;99.90
30174;DHT22;16985;50.814;8.530;2023-08-01T13:22:51;21.50;99.90
30174;DHT22;16985;50.814;8.530;2023-08-01T13:25:18;21.60;99.90
30174;DHT22;16985;50.814;8.530;2023-08-01T13:27:44;21.70;99.90
30174;DHT22;16985;50.814;8.530;2023-08-01T13:30:10;21.80;99.90
30174;DHT22;16985;50.814;8.530;2023-08-01T13:32:40;21.90;99.90
30174;DHT22;16985;50.814;8.530;2023-08-01T13:35:06;21.90;98.40
30174;DHT22;16985;50.814;8.530;2023-08-01T13:37:32;21.80;97.50
30174;DHT22;16985;50.814;8.530;2023-08-01T13:39:58;21.70;96.30
30174;DHT22;16985;50.814;8.530;2023-08-01T13:42:24;21.60;94.60
30174;DHT22;16985;50.814;8.530;2023-08-01T13:44:50;21.50;94.60
30174;DHT22;16985;50.814;8.530;2023-08-01T13:47:16;21.40;95.10
30174;DHT22;16985;50.814;8.530;2023-08-01T13:49:41;21.30;95.30
30174;DHT22;16985;50.814;8.530;2023-08-01T13:52:07;21.20;93.60
30174;DHT22;16985;50.814;8.530;2023-08-01T13:54:33;21.20;94.00
30174;DHT22;16985;50.814;8.530;2023-08-01T13:57:00;21.20;94.10
30174;DHT22;16985;50.814;8.530;2023-08-01T13:59:26;21.20;94.30
30174;DHT22;16985;50.814;8.530;2023-08-01T14:01:52;21.30;95.00
30174;DHT22;16985;50.814;8.530;2023-08-01T14:04:18;21.40;94.80
30174;DHT22;16985;50.814;8.530;2023-08-01T14:06:44;21.50;94.80
30174;DHT22;16985;50.814;8.530;2023-08-01T14:09:10;21.60;94.30
30174;DHT22;16985;50.814;8.530;2023-08-01T14:11:37;21.70;94.00
30174;DHT22;16985;50.814;8.530;2023-08-01T14:14:03;21.80;93.70
30174;DHT22;16985;50.814;8.530;2023-08-01T14:16:29;21.90;93.30
30174;DHT22;16985;50.814;8.530;2023-08-01T14:18:56;22.00;92.80
30174;DHT22;16985;50.814;8.530;2023-08-01T14:21:22;22.10;91.50
30174;DHT22;16985;50.814;8.530;2023-08-01T14:23:48;22.00;90.40
30174;DHT22;16985;50.814;8.530;2023-08-01T14:26:14;22.00;89.40
30174;DHT22;16985;50.814;8.530;2023-08-01T14:28:40;21.90;88.50
30174;DHT22;16985;50.814;8.530;2023-08-01T14:31:06;21.80;87.70
30174;DHT22;16985;50.814;8.530;2023-08-01T14:33:33;21.70;90.00
30174;DHT22;16985;50.814;8.530;2023-08-01T14:35:59;21.60;91.00
30174;DHT22;16985;50.814;8.530;2023-08-01T14:38:25;21.50;91.40
30174;DHT22;16985;50.814;8.530;2023-08-01T14:40:52;21.40;92.60
30174;DHT22;16985;50.814;8.530;2023-08-01T14:43:18;21.20;93.60
30174;DHT22;16985;50.814;8.530;2023-08-01T14:45:44;21.10;93.40
30174;DHT22;16985;50.814;8.530;2023-08-01T14:48:10;21.10;93.60
30174;DHT22;16985;50.814;8.530;2023-08-01T14:50:37;21.00;94.10
30174;DHT22;16985;50.814;8.530;2023-08-01T14:53:03;21.10;94.70
30174;DHT22;16985;50.814;8.530;2023-08-01T14:55:30;21.10;95.10
30174;DHT22;16985;50.814;8.530;2023-08-01T14:57:56;21.00;95.60
30174;DHT22;16985;50.814;8.530;2023-08-01T15:00:21;21.10;95.80
30174;DHT22;16985;50.814;8.530;2023-08-01T15:02:47;21.10;95.70
30174;DHT22;16985;50.814;8.530;2023-08-01T15:05:14;21.20;95.40
30174;DHT22;16985;50.814;8.530;2023-08-01T15:07:40;21.30;95.60
30174;DHT22;16985;50.814;8.530;2023-08-01T15:10:06;21.30;95.60
30174;DHT22;16985;50.814;8.530;2023-08-01T15:12:32;21.40;95.50
30174;DHT22;16985;50.814;8.530;2023-08-01T15:14:58;21.30;95.00
30174;DHT22;16985;50.814;8.530;2023-08-01T15:17:24;21.10;94.60
30174;DHT22;16985;50.814;8.530;2023-08-01T15:19:50;21.00;94.50
30174;DHT22;16985;50.814;8.530;2023-08-01T15:22:18;21.00;94.80
30174;DHT22;16985;50.814;8.530;2023-08-01T15:24:44;20.90;94.80
30174;DHT22;16985;50.814;8.530;2023-08-01T15:27:11;20.80;94.40
30174;DHT22;16985;50.814;8.530;2023-08-01T15:29:37;20.70;94.20
30174;DHT22;16985;50.814;8.530;2023-08-01T15:32:04;20.70;94.60
30174;DHT22;16985;50.814;8.530;2023-08-01T15:34:30;20.60;94.80